Time;durP1;ratioP1;P1;durP2;ratioP2;P2;SDS_P1;SDS_P2;PMS_P1;PMS_P2;Temp;Humidity;BMP_temperature;BMP_pressure;BME280_temperature;BME280_humidity;BME280_pressure;Samples;Min_cycle;Max_cycle;Signal;HPM_P1;HPM_P2
2024/01/27 00:01:21;;;;;;;1.75;0.60;;;;;;;;;;5009851;28;20042;-81
2024/01/27 00:03:50;;;;;;;0.30;0.30;;;;;;;;;;4982793;28;20121;-81
2024/01/27 00:06:17;;;;;;;1.35;0.75;;;;;;;;;;5010136;28;20054;-82
2024/01/27 00:08:45;;;;;;;0.10;0.10;;;;;;;;;;5000965;28;20635;-82
2024/01/27 00:11:12;;;;;;;1.05;0.65;;;;;;;;;;5006329;28;20531;-81
2024/01/27 00:13:39;;;;;;;2.42;1.15;;;;;;;;;;5008553;28;20072;-82
2024/01/27 00:16:07;;;;;;;0.98;0.52;;;;;;;;;;5002706;28;20411;-81
2024/01/27 00:18:37;;;;;;;0.10;0.10;;;;;;;;;;5005701;28;20081;-81
2024/01/27 00:21:08;;;;;;;1.02;0.38;;;;;;;;;;4987800;28;20138;-81
2024/01/27 00:23:35;;;;;;;0.38;0.38;;;;;;;;;;5011049;28;20241;-81
2024/01/27 00:26:03;;;;;;;0.22;0.22;;;;;;;;;;5012382;28;20565;-81
2024/01/27 00:28:31;;;;;;;0.10;0.10;;;;;;;;;;4993652;28;20570;-81
2024/01/27 00:30:58;;;;;;;0.25;0.25;;;;;;;;;;5013731;28;20077;-81
2024/01/27 00:33:26;;;;;;;0.10;0.10;;;;;;;;;;4996326;28;20044;-81
2024/01/27 00:35:54;;;;;;;0.10;0.10;;;;;;;;;;5009125;28;20581;-81
2024/01/27 00:38:21;;;;;;;0.30;0.30;;;;;;;;;;4990887;28;20084;-81
2024/01/27 00:40:49;;;;;;;0.20;0.20;;;;;;;;;;5008117;28;20100;-81
2024/01/27 00:43:16;;;;;;;0.20;0.20;;;;;;;;;;5008709;28;20070;-81
2024/01/27 00:45:44;;;;;;;0.40;0.40;;;;;;;;;;5004725;28;20443;-81
2024/01/27 00:48:11;;;;;;;0.10;0.10;;;;;;;;;;5008191;28;20187;-81
2024/01/27 00:50:40;;;;;;;0.20;0.20;;;;;;;;;;5009970;28;20053;-81
2024/01/27 00:53:07;;;;;;;0.10;0.10;;;;;;;;;;4991935;28;20038;-81
2024/01/27 00:55:34;;;;;;;0.30;0.30;;;;;;;;;;4990767;28;20069;-82
2024/01/27 00:58:02;;;;;;;0.10;0.10;;;;;;;;;;5004406;28;20042;-81
2024/01/27 01:00:29;;;;;;;2.40;0.40;;;;;;;;;;5007397;28;20125;-81
2024/01/27 01:02:57;;;;;;;0.10;0.10;;;;;;;;;;5007049;28;20120;-81
2024/01/27 01:05:24;;;;;;;0.90;0.20;;;;;;;;;;5012551;28;20061;-81
2024/01/27 01:07:52;;;;;;;0.10;0.10;;;;;;;;;;5008669;28;20069;-81
2024/01/27 01:10:20;;;;;;;0.10;0.10;;;;;;;;;;5009536;28;20594;-81
2024/01/27 01:12:47;;;;;;;0.10;0.10;;;;;;;;;;5005979;28;20141;-81
2024/01/27 01:15:15;;;;;;;4.30;0.52;;;;;;;;;;5006260;28;20042;-81
2024/01/27 01:17:43;;;;;;;0.20;0.20;;;;;;;;;;5005791;28;20049;-81
2024/01/27 01:20:11;;;;;;;0.10;0.10;;;;;;;;;;5006336;28;20103;-81
2024/01/27 01:22:38;;;;;;;1.35;0.20;;;;;;;;;;5006677;28;20046;-81
2024/01/27 01:25:06;;;;;;;0.00;0.00;;;;;;;;;;5001166;28;36265;-81
2024/01/27 01:27:33;;;;;;;1.55;0.57;;;;;;;;;;5006661;28;20116;-81
2024/01/27 01:30:01;;;;;;;1.75;0.43;;;;;;;;;;5005102;28;20115;-81
2024/01/27 01:32:28;;;;;;;0.22;0.22;;;;;;;;;;5006043;28;20049;-81
2024/01/27 01:34:56;;;;;;;0.30;0.30;;;;;;;;;;4991932;28;20054;-81
2024/01/27 01:37:23;;;;;;;0.10;0.10;;;;;;;;;;5004310;28;20468;-81
2024/01/27 01:39:50;;;;;;;0.10;0.10;;;;;;;;;;5003727;28;20133;-81
2024/01/27 01:42:20;;;;;;;0.35;0.35;;;;;;;;;;5006577;28;20034;-81
2024/01/27 01:44:47;;;;;;;0.22;0.22;;;;;;;;;;5006041;28;20125;-82
2024/01/27 01:47:15;;;;;;;4.07;0.30;;;;;;;;;;5005076;28;20141;-81
2024/01/27 01:49:42;;;;;;;0.85;0.35;;;;;;;;;;5004661;28;20054;-81
2024/01/27 01:52:11;;;;;;;0.20;0.20;;;;;;;;;;4987569;28;20056;-81
2024/01/27 01:54:38;;;;;;;0.10;0.10;;;;;;;;;;5004837;28;20038;-81
2024/01/27 01:57:06;;;;;;;0.10;0.10;;;;;;;;;;4986702;28;20038;-81
2024/01/27 01:59:34;;;;;;;0.30;0.30;;;;;;;;;;5006236;28;20050;-81
2024/01/27 02:02:01;;;;;;;0.35;0.28;;;;;;;;;;4987700;28;20042;-81
2024/01/27 02:04:28;;;;;;;0.10;0.10;;;;;;;;;;5006694;28;20410;-81
2024/01/27 02:06:56;;;;;;;0.20;0.20;;;;;;;;;;4991593;28;20116;-82
2024/01/27 02:09:23;;;;;;;0.45;0.45;;;;;;;;;;5004135;28;23837;-81
2024/01/27 02:11:51;;;;;;;0.47;0.47;;;;;;;;;;5007504;28;20120;-81
2024/01/27 02:14:18;;;;;;;0.63;0.63;;;;;;;;;;4991212;28;20084;-81
2024/01/27 02:16:46;;;;;;;0.30;0.30;;;;;;;;;;5004589;28;20107;-82
2024/01/27 02:19:13;;;;;;;2.22;0.88;;;;;;;;;;5005014;28;20141;-81
2024/01/27 02:21:41;;;;;;;0.38;0.35;;;;;;;;;;5006545;28;20069;-81
2024/01/27 02:24:09;;;;;;;0.85;0.50;;;;;;;;;;5004974;28;20063;-81
2024/01/27 02:26:37;;;;;;;0.15;0.15;;;;;;;;;;5002626;28;20057;-81
2024/01/27 02:29:04;;;;;;;0.10;0.10;;;;;;;;;;4990728;28;20385;-81
2024/01/27 02:31:31;;;;;;;0.08;0.08;;;;;;;;;;5011223;28;20140;-81
2024/01/27 02:33:59;;;;;;;0.28;0.20;;;;;;;;;;5014508;28;20534;-81
2024/01/27 02:36:27;;;;;;;0.10;0.10;;;;;;;;;;5013685;28;20113;-81
2024/01/27 02:38:54;;;;;;;0.30;0.30;;;;;;;;;;4993814;28;20419;-81
2024/01/27 02:41:22;;;;;;;0.20;0.20;;;;;;;;;;4996696;28;20514;-81
2024/01/27 02:43:49;;;;;;;0.15;0.15;;;;;;;;;;5017188;28;20041;-81
2024/01/27 02:46:17;;;;;;;0.10;0.10;;;;;;;;;;5010296;28;20120;-81
2024/01/27 02:48:44;;;;;;;0.10;0.10;;;;;;;;;;5013785;28;20041;-80
2024/01/27 02:51:12;;;;;;;0.10;0.10;;;;;;;;;;5015709;28;20050;-81
2024/01/27 02:53:41;;;;;;;0.10;0.10;;;;;;;;;;5014142;28;20559;-81
2024/01/27 02:56:08;;;;;;;1.10;1.10;;;;;;;;;;5014604;28;20069;-81
2024/01/27 02:58:36;;;;;;;0.10;0.10;;;;;;;;;;5015129;28;20046;-81
2024/01/27 03:01:03;;;;;;;25.60;0.85;;;;;;;;;;5003883;28;20065;-81
2024/01/27 03:03:31;;;;;;;1.75;0.50;;;;;;;;;;5014530;28;20045;-81
2024/01/27 03:05:58;;;;;;;0.25;0.25;;;;;;;;;;5012333;28;20050;-81
2024/01/27 03:08:26;;;;;;;0.28;0.25;;;;;;;;;;5004560;28;20053;-82
2024/01/27 03:10:54;;;;;;;0.30;0.30;;;;;;;;;;5005484;28;20523;-81
2024/01/27 03:13:22;;;;;;;0.57;0.57;;;;;;;;;;5003509;28;20053;-81
2024/01/27 03:15:49;;;;;;;0.10;0.10;;;;;;;;;;4990706;28;20133;-81
2024/01/27 03:18:17;;;;;;;0.10;0.10;;;;;;;;;;5007014;28;20053;-81
2024/01/27 03:20:45;;;;;;;0.10;0.10;;;;;;;;;;5007354;28;20132;-82
2024/01/27 03:23:12;;;;;;;0.30;0.30;;;;;;;;;;5006769;28;20112;-81
2024/01/27 03:25:39;;;;;;;0.10;0.10;;;;;;;;;;5004689;28;20046;-81
2024/01/27 03:28:07;;;;;;;0.10;0.10;;;;;;;;;;4985116;28;20048;-81
2024/01/27 03:30:34;;;;;;;0.10;0.10;;;;;;;;;;5005346;28;20054;-81
2024/01/27 03:33:02;;;;;;;0.10;0.10;;;;;;;;;;5003810;28;20050;-81
2024/01/27 03:35:29;;;;;;;0.10;0.10;;;;;;;;;;5004030;28;20088;-81
2024/01/27 03:37:57;;;;;;;0.13;0.13;;;;;;;;;;5004703;28;20050;-81
2024/01/27 03:40:25;;;;;;;0.20;0.20;;;;;;;;;;5005189;28;20097;-81
2024/01/27 03:42:53;;;;;;;0.10;0.10;;;;;;;;;;5007864;28;20033;-82
2024/01/27 03:45:20;;;;;;;0.10;0.10;;;;;;;;;;5003380;28;20078;-81
2024/01/27 03:47:48;;;;;;;0.10;0.10;;;;;;;;;;5005458;28;20050;-81
2024/01/27 03:50:17;;;;;;;0.10;0.10;;;;;;;;;;5006290;28;20050;-81
2024/01/27 03:52:45;;;;;;;0.65;0.65;;;;;;;;;;5005985;28;20046;-81
2024/01/27 03:55:13;;;;;;;0.10;0.10;;;;;;;;;;5005484;28;20046;-81
2024/01/27 03:57:40;;;;;;;0.10;0.10;;;;;;;;;;5007775;28;20069;-81
2024/01/27 04:00:08;;;;;;;0.22;0.22;;;;;;;;;;4993030;28;20053;-81
2024/01/27 04:02:35;;;;;;;0.10;0.10;;;;;;;;;;5008983;28;20042;-81
2024/01/27 04:05:03;;;;;;;0.10;0.10;;;;;;;;;;5007396;28;20041;-81
2024/01/27 04:07:30;;;;;;;0.10;0.10;;;;;;;;;;5006042;28;20104;-81
2024/01/27 04:09:57;;;;;;;0.25;0.20;;;;;;;;;;4990669;28;20050;-81
2024/01/27 04:12:25;;;;;;;0.63;0.63;;;;;;;;;;5007583;28;20050;-81
2024/01/27 04:14:53;;;;;;;0.63;0.63;;;;;;;;;;5003655;28;20041;-81
2024/01/27 04:17:20;;;;;;;0.17;0.17;;;;;;;;;;5005720;28;20169;-81
2024/01/27 04:19:47;;;;;;;0.63;0.63;;;;;;;;;;5008765;28;20076;-81
2024/01/27 04:22:15;;;;;;;0.20;0.20;;;;;;;;;;5007555;28;20511;-82
2024/01/27 04:24:43;;;;;;;0.15;0.15;;;;;;;;;;4991663;28;20054;-81
2024/01/27 04:27:10;;;;;;;0.20;0.20;;;;;;;;;;5007878;28;20082;-81
2024/01/27 04:29:38;;;;;;;0.10;0.10;;;;;;;;;;4991398;28;20297;-81
2024/01/27 04:32:06;;;;;;;0.43;0.20;;;;;;;;;;5010272;28;20050;-81
2024/01/27 04:34:33;;;;;;;0.20;0.20;;;;;;;;;;4992177;28;20082;-81
2024/01/27 04:37:01;;;;;;;0.15;0.15;;;;;;;;;;4989023;28;20100;-81
2024/01/27 04:39:29;;;;;;;0.10;0.10;;;;;;;;;;4992116;28;20038;-81
2024/01/27 04:41:56;;;;;;;0.20;0.20;;;;;;;;;;5007841;28;20037;-81
2024/01/27 04:44:24;;;;;;;0.68;0.68;;;;;;;;;;5007681;28;20121;-81
2024/01/27 04:46:51;;;;;;;0.10;0.10;;;;;;;;;;5005697;28;20588;-81
2024/01/27 04:49:19;;;;;;;0.10;0.10;;;;;;;;;;5004763;28;20941;-81
2024/01/27 04:51:46;;;;;;;0.10;0.10;;;;;;;;;;5005512;28;20046;-80
2024/01/27 04:54:14;;;;;;;0.10;0.10;;;;;;;;;;5012237;28;20507;-81
2024/01/27 04:56:42;;;;;;;0.10;0.10;;;;;;;;;;5011638;28;20050;-81
2024/01/27 04:59:09;;;;;;;0.52;0.52;;;;;;;;;;5013106;28;20638;-81
2024/01/27 05:01:36;;;;;;;0.20;0.20;;;;;;;;;;5012499;28;20061;-80
2024/01/27 05:04:04;;;;;;;0.10;0.10;;;;;;;;;;5012920;28;20101;-81
2024/01/27 05:06:31;;;;;;;0.17;0.17;;;;;;;;;;5009529;28;20052;-81
2024/01/27 05:08:59;;;;;;;0.50;0.45;;;;;;;;;;5013607;28;20054;-80
2024/01/27 05:11:29;;;;;;;0.10;0.10;;;;;;;;;;5012436;28;20052;-80
2024/01/27 05:13:57;;;;;;;0.40;0.40;;;;;;;;;;5014771;28;20042;-81
2024/01/27 05:16:24;;;;;;;0.20;0.20;;;;;;;;;;5012343;28;20081;-81
2024/01/27 05:18:52;;;;;;;0.15;0.15;;;;;;;;;;4997250;28;20050;-81
2024/01/27 05:21:20;;;;;;;1.88;0.70;;;;;;;;;;5013571;28;20078;-81
2024/01/27 05:23:47;;;;;;;0.05;0.05;;;;;;;;;;5013820;28;20069;-80
2024/01/27 05:26:15;;;;;;;0.10;0.10;;;;;;;;;;5014646;28;20409;-80
2024/01/27 05:28:42;;;;;;;0.00;0.00;;;;;;;;;;5011712;28;20041;-81
2024/01/27 05:31:09;;;;;;;0.10;0.10;;;;;;;;;;5015482;28;20060;-81
2024/01/27 05:33:37;;;;;;;0.10;0.10;;;;;;;;;;5016248;28;20538;-80
2024/01/27 05:36:05;;;;;;;1.90;1.40;;;;;;;;;;4995458;28;20038;-80
2024/01/27 05:38:33;;;;;;;3.40;1.65;;;;;;;;;;5048188;23;20045;-80
2024/01/27 05:41:04;;;;;;;0.10;0.10;;;;;;;;;;5025179;28;20045;-80
2024/01/27 05:43:31;;;;;;;0.53;0.53;;;;;;;;;;5025308;28;20041;-80
2024/01/27 05:45:59;;;;;;;0.10;0.10;;;;;;;;;;5010827;28;20280;-80
2024/01/27 05:48:26;;;;;;;0.25;0.25;;;;;;;;;;5006045;28;20085;-80
2024/01/27 05:50:58;;;;;;;0.30;0.30;;;;;;;;;;5006625;28;20041;-79
2024/01/27 05:53:26;;;;;;;0.10;0.10;;;;;;;;;;4999174;28;20439;-80
2024/01/27 05:55:59;;;;;;;0.55;0.30;;;;;;;;;;4998366;28;20073;-79
2024/01/27 05:58:27;;;;;;;0.10;0.10;;;;;;;;;;5004741;28;20049;-79
2024/01/27 06:00:57;;;;;;;0.20;0.20;;;;;;;;;;4999345;28;20403;-80
2024/01/27 06:03:24;;;;;;;0.25;0.25;;;;;;;;;;5000229;28;20551;-79
2024/01/27 06:05:52;;;;;;;0.20;0.20;;;;;;;;;;5003893;28;20522;-80
2024/01/27 06:08:20;;;;;;;1.92;0.65;;;;;;;;;;5003182;28;20488;-80
2024/01/27 06:10:47;;;;;;;6.13;1.55;;;;;;;;;;5002754;28;20077;-80
2024/01/27 06:13:16;;;;;;;0.22;0.22;;;;;;;;;;5004300;28;20116;-79
2024/01/27 06:15:43;;;;;;;0.30;0.30;;;;;;;;;;5002579;28;20070;-80
2024/01/27 06:18:11;;;;;;;0.47;0.45;;;;;;;;;;4998176;28;20045;-79
2024/01/27 06:20:40;;;;;;;0.30;0.30;;;;;;;;;;5000820;28;20132;-79
2024/01/27 06:23:07;;;;;;;0.38;0.32;;;;;;;;;;5004982;28;20049;-80
2024/01/27 06:25:35;;;;;;;0.30;0.30;;;;;;;;;;5005217;28;20049;-79
2024/01/27 06:28:03;;;;;;;3.72;0.52;;;;;;;;;;5006042;28;20052;-79
2024/01/27 06:30:30;;;;;;;0.10;0.10;;;;;;;;;;4994396;28;20060;-79
2024/01/27 06:32:58;;;;;;;0.60;0.60;;;;;;;;;;4994843;28;20057;-79
2024/01/27 06:35:26;;;;;;;0.32;0.22;;;;;;;;;;4998490;28;20129;-79
2024/01/27 06:37:53;;;;;;;0.20;0.20;;;;;;;;;;5004994;28;20538;-79
2024/01/27 06:40:21;;;;;;;0.73;0.73;;;;;;;;;;5001648;28;20258;-79
2024/01/27 06:42:48;;;;;;;2.45;1.02;;;;;;;;;;5003088;28;20053;-79
2024/01/27 06:45:16;;;;;;;0.10;0.10;;;;;;;;;;5003847;28;20132;-79
2024/01/27 06:47:44;;;;;;;0.20;0.20;;;;;;;;;;5003802;28;20075;-79
2024/01/27 06:50:13;;;;;;;0.38;0.38;;;;;;;;;;5000976;28;20038;-79
2024/01/27 06:52:41;;;;;;;0.20;0.20;;;;;;;;;;5001812;28;20096;-79
2024/01/27 06:55:10;;;;;;;0.47;0.47;;;;;;;;;;5001939;28;20048;-78
2024/01/27 06:57:38;;;;;;;0.30;0.30;;;;;;;;;;5002995;28;20644;-78
2024/01/27 07:00:06;;;;;;;0.95;0.95;;;;;;;;;;4991196;28;20055;-79
2024/01/27 07:02:33;;;;;;;0.63;0.50;;;;;;;;;;4998761;28;20037;-76
2024/01/27 07:05:01;;;;;;;0.80;0.43;;;;;;;;;;5005841;28;20073;-79
2024/01/27 07:07:29;;;;;;;0.52;0.52;;;;;;;;;;5004088;28;20054;-79
2024/01/27 07:09:56;;;;;;;1.23;0.50;;;;;;;;;;5004132;28;20527;-79
2024/01/27 07:12:24;;;;;;;1.67;1.00;;;;;;;;;;5005714;28;20046;-79
2024/01/27 07:14:52;;;;;;;1.10;1.10;;;;;;;;;;4997882;28;21033;-79
2024/01/27 07:17:24;;;;;;;5.72;1.67;;;;;;;;;;5002385;28;20045;-79
2024/01/27 07:19:51;;;;;;;1.98;1.77;;;;;;;;;;5003994;28;20049;-79
2024/01/27 07:22:19;;;;;;;0.75;0.65;;;;;;;;;;4993652;28;20119;-79
2024/01/27 07:24:50;;;;;;;1.08;1.08;;;;;;;;;;5002206;28;20269;-79
2024/01/27 07:27:18;;;;;;;0.63;0.63;;;;;;;;;;4996309;28;20068;-79
2024/01/27 07:29:46;;;;;;;0.10;0.10;;;;;;;;;;4970782;28;20133;-79
2024/01/27 07:32:14;;;;;;;0.88;0.88;;;;;;;;;;5003480;28;20049;-80
2024/01/27 07:34:42;;;;;;;0.90;0.90;;;;;;;;;;5005113;28;20498;-80
2024/01/27 07:37:10;;;;;;;0.80;0.80;;;;;;;;;;5011367;28;20171;-80
2024/01/27 07:39:38;;;;;;;1.20;1.20;;;;;;;;;;5029723;28;20628;-82
2024/01/27 07:42:06;;;;;;;2.20;1.65;;;;;;;;;;5013943;28;20046;-80
2024/01/27 07:44:33;;;;;;;1.77;1.30;;;;;;;;;;5003427;28;20054;-80
2024/01/27 07:47:05;;;;;;;0.50;0.47;;;;;;;;;;5011043;28;20057;-80
2024/01/27 07:49:33;;;;;;;1.25;1.13;;;;;;;;;;5011535;28;20748;-80
2024/01/27 07:52:01;;;;;;;2.83;1.25;;;;;;;;;;5016649;28;20312;-80
2024/01/27 07:54:29;;;;;;;3.65;2.40;;;;;;;;;;5007462;28;20060;-79
2024/01/27 07:57:00;;;;;;;1.98;1.70;;;;;;;;;;5000192;28;20042;-79
2024/01/27 07:59:27;;;;;;;3.53;2.50;;;;;;;;;;5007236;28;20060;-79
2024/01/27 08:01:55;;;;;;;1.10;1.10;;;;;;;;;;4998452;28;20058;-79
2024/01/27 08:04:22;;;;;;;2.70;2.50;;;;;;;;;;5001466;28;20050;-78
2024/01/27 08:07:05;;;;;;;2.03;0.90;;;;;;;;;;4991303;28;20054;-80
2024/01/27 08:09:33;;;;;;;2.08;1.02;;;;;;;;;;5000867;28;20052;-80
2024/01/27 08:12:01;;;;;;;0.20;0.20;;;;;;;;;;5007070;28;20042;-81
2024/01/27 08:14:31;;;;;;;3.53;3.15;;;;;;;;;;5021107;28;20104;-81
2024/01/27 08:17:03;;;;;;;1.17;0.50;;;;;;;;;;5001419;28;20573;-81
2024/01/27 08:19:30;;;;;;;2.30;1.05;;;;;;;;;;5000853;28;20503;-81
2024/01/27 08:21:58;;;;;;;0.30;0.30;;;;;;;;;;4983779;28;20053;-80
2024/01/27 08:24:31;;;;;;;1.35;1.33;;;;;;;;;;5000061;28;20056;-80
2024/01/27 08:27:02;;;;;;;1.95;0.88;;;;;;;;;;4999147;28;20046;-79
2024/01/27 08:29:29;;;;;;;1.27;0.75;;;;;;;;;;4997474;28;20050;-81
2024/01/27 08:31:58;;;;;;;1.27;1.10;;;;;;;;;;5008887;28;20326;-81
2024/01/27 08:34:31;;;;;;;0.70;0.70;;;;;;;;;;5006618;28;20076;-80
2024/01/27 08:37:01;;;;;;;0.52;0.52;;;;;;;;;;4998517;28;20062;-79
2024/01/27 08:39:31;;;;;;;0.52;0.52;;;;;;;;;;5005482;28;20052;-80
2024/01/27 08:41:58;;;;;;;0.57;0.57;;;;;;;;;;5007044;28;20463;-80
2024/01/27 08:44:33;;;;;;;0.82;0.82;;;;;;;;;;5000160;28;20050;-80
2024/01/27 08:47:00;;;;;;;1.75;1.65;;;;;;;;;;5003607;28;20052;-80
2024/01/27 08:49:33;;;;;;;0.63;0.63;;;;;;;;;;5002772;28;20096;-80
2024/01/27 08:52:00;;;;;;;1.42;1.30;;;;;;;;;;4995701;28;20050;-80
2024/01/27 08:54:31;;;;;;;4.18;2.97;;;;;;;;;;4998544;28;20056;-80
2024/01/27 08:57:03;;;;;;;0.63;0.63;;;;;;;;;;5004676;28;20037;-80
2024/01/27 08:59:31;;;;;;;1.55;1.45;;;;;;;;;;5004151;28;20300;-80
2024/01/27 09:02:00;;;;;;;0.75;0.75;;;;;;;;;;5000018;28;20045;-81
2024/01/27 09:04:32;;;;;;;0.55;0.52;;;;;;;;;;4999406;28;20045;-81
2024/01/27 09:07:03;;;;;;;0.88;0.88;;;;;;;;;;4998143;28;20416;-80
2024/01/27 09:09:30;;;;;;;0.98;0.98;;;;;;;;;;5001434;28;20413;-80
2024/01/27 09:11:58;;;;;;;0.93;0.93;;;;;;;;;;5002398;28;20057;-80
2024/01/27 09:14:33;;;;;;;0.68;0.68;;;;;;;;;;4996764;28;20065;-80
2024/01/27 09:17:02;;;;;;;0.95;0.85;;;;;;;;;;5004780;28;20050;-80
2024/01/27 09:19:30;;;;;;;0.60;0.60;;;;;;;;;;5004771;28;20141;-80
2024/01/27 09:21:57;;;;;;;0.25;0.25;;;;;;;;;;5001147;28;20045;-80
2024/01/27 09:24:27;;;;;;;2.05;1.20;;;;;;;;;;5008013;28;20061;-80
2024/01/27 09:26:56;;;;;;;0.57;0.57;;;;;;;;;;4999368;28;20679;-80
2024/01/27 09:29:29;;;;;;;0.70;0.45;;;;;;;;;;5002950;28;20057;-80
2024/01/27 09:31:57;;;;;;;1.17;1.00;;;;;;;;;;5002538;28;20068;-80
2024/01/27 09:34:31;;;;;;;0.17;0.17;;;;;;;;;;4995208;28;20076;-80
2024/01/27 09:37:00;;;;;;;1.08;1.00;;;;;;;;;;5003190;28;20131;-79
2024/01/27 09:39:28;;;;;;;3.95;0.95;;;;;;;;;;5002594;28;20269;-80
2024/01/27 09:41:57;;;;;;;0.65;0.65;;;;;;;;;;5001886;28;20305;-80
2024/01/27 09:44:30;;;;;;;0.55;0.55;;;;;;;;;;4986956;28;20411;-80
2024/01/27 09:47:03;;;;;;;0.20;0.20;;;;;;;;;;4994210;28;20050;-81
2024/01/27 09:49:33;;;;;;;5.55;0.90;;;;;;;;;;4998029;28;20103;-79
2024/01/27 09:52:01;;;;;;;0.70;0.70;;;;;;;;;;4995659;28;20046;-79
2024/01/27 09:54:31;;;;;;;7.25;1.27;;;;;;;;;;4992930;28;20050;-79
2024/01/27 09:57:03;;;;;;;1.02;0.47;;;;;;;;;;4996108;28;20042;-79
2024/01/27 09:59:32;;;;;;;0.63;0.63;;;;;;;;;;5002351;28;20480;-79
2024/01/27 10:02:00;;;;;;;4.13;1.25;;;;;;;;;;4980266;28;20046;-81
2024/01/27 10:04:28;;;;;;;0.28;0.28;;;;;;;;;;4999229;28;20043;-81
2024/01/27 10:07:02;;;;;;;0.30;0.30;;;;;;;;;;5001038;28;20065;-81
2024/01/27 10:09:29;;;;;;;0.95;0.95;;;;;;;;;;4996249;28;20053;-81
2024/01/27 10:11:57;;;;;;;0.10;0.10;;;;;;;;;;4997776;28;20050;-81
2024/01/27 10:14:37;;;;;;;0.80;0.80;;;;;;;;;;4996799;28;20168;-80
2024/01/27 10:17:06;;;;;;;1.15;0.90;;;;;;;;;;4993893;28;20392;-80
2024/01/27 10:19:33;;;;;;;1.40;0.80;;;;;;;;;;4993788;28;20135;-80
2024/01/27 10:22:04;;;;;;;0.60;0.60;;;;;;;;;;4996264;28;20046;-80
2024/01/27 10:24:33;;;;;;;2.80;0.80;;;;;;;;;;4986307;28;20050;-80
2024/01/27 10:27:05;;;;;;;2.88;1.45;;;;;;;;;;4998677;28;20054;-81
2024/01/27 10:29:32;;;;;;;0.32;0.32;;;;;;;;;;4975823;28;20565;-79
2024/01/27 10:32:10;;;;;;;2.50;0.77;;;;;;;;;;4990707;28;20093;-78
2024/01/27 10:34:38;;;;;;;1.33;0.85;;;;;;;;;;5006676;28;20504;-79
2024/01/27 10:37:06;;;;;;;3.75;1.33;;;;;;;;;;5006745;28;20046;-78
2024/01/27 10:39:33;;;;;;;1.23;1.13;;;;;;;;;;5006395;28;20054;-79
2024/01/27 10:42:04;;;;;;;4.15;1.15;;;;;;;;;;5004889;28;20042;-77
2024/01/27 10:44:34;;;;;;;1.08;0.60;;;;;;;;;;5004248;28;20041;-77
2024/01/27 10:47:03;;;;;;;0.60;0.60;;;;;;;;;;5004805;28;20054;-78
2024/01/27 10:49:34;;;;;;;1.02;1.02;;;;;;;;;;5004867;28;20460;-78
2024/01/27 10:52:04;;;;;;;1.50;0.82;;;;;;;;;;5003727;28;20374;-78
2024/01/27 10:54:34;;;;;;;0.60;0.60;;;;;;;;;;5004847;28;20056;-78
2024/01/27 10:57:02;;;;;;;1.05;1.05;;;;;;;;;;5005847;28;20325;-78
2024/01/27 10:59:31;;;;;;;5.82;1.77;;;;;;;;;;5007978;28;20128;-78
2024/01/27 11:01:58;;;;;;;0.30;0.30;;;;;;;;;;5009028;28;20072;-78
2024/01/27 11:04:28;;;;;;;3.33;1.70;;;;;;;;;;5010205;28;20049;-78
2024/01/27 11:06:57;;;;;;;0.80;0.75;;;;;;;;;;5006562;28;20095;-77
2024/01/27 11:09:25;;;;;;;1.25;1.15;;;;;;;;;;5008706;28;20112;-78
2024/01/27 11:11:53;;;;;;;1.23;1.15;;;;;;;;;;5003112;28;20046;-78
2024/01/27 11:14:21;;;;;;;0.80;0.80;;;;;;;;;;5006758;28;20049;-78
2024/01/27 11:16:48;;;;;;;3.63;1.58;;;;;;;;;;5008809;28;20050;-78
2024/01/27 11:19:18;;;;;;;3.40;1.48;;;;;;;;;;5004976;28;20446;-78
2024/01/27 11:21:46;;;;;;;0.40;0.40;;;;;;;;;;5003549;28;20451;-77
2024/01/27 11:24:14;;;;;;;2.47;1.55;;;;;;;;;;5007647;28;20034;-77
2024/01/27 11:26:42;;;;;;;2.75;0.93;;;;;;;;;;5007774;28;20135;-78
2024/01/27 11:29:19;;;;;;;2.80;1.20;;;;;;;;;;5010589;28;20142;-78
2024/01/27 11:31:47;;;;;;;0.50;0.50;;;;;;;;;;5006481;28;20511;-78
2024/01/27 11:34:19;;;;;;;1.00;0.95;;;;;;;;;;5008314;28;20086;-77
2024/01/27 11:36:47;;;;;;;0.73;0.70;;;;;;;;;;5010972;28;20080;-78
2024/01/27 11:39:27;;;;;;;0.30;0.30;;;;;;;;;;5007158;28;20045;-77
2024/01/27 11:44:54;;;;;;;9.48;1.63;;;;;;;;;;4977620;28;20047;-79
2024/01/27 11:47:22;;;;;;;0.20;0.20;;;;;;;;;;4975892;28;20057;-79
2024/01/27 11:49:54;;;;;;;0.45;0.45;;;;;;;;;;4982666;28;20061;-80
2024/01/27 11:52:22;;;;;;;;;;;;;;;;;;4982342;28;20108;-79
2024/01/27 11:55:07;;;;;;;0.55;0.55;;;;;;;;;;4983659;28;20001;-79
2024/01/27 11:57:35;;;;;;;0.47;0.40;;;;;;;;;;4983007;28;20082;-79
2024/01/27 12:00:03;;;;;;;2.95;2.20;;;;;;;;;;4965856;28;20051;-79
2024/01/27 12:02:32;;;;;;;3.88;2.05;;;;;;;;;;4984783;28;20135;-79
2024/01/27 12:05:00;;;;;;;3.10;0.98;;;;;;;;;;4985558;28;20078;-79
2024/01/27 12:07:27;;;;;;;0.40;0.40;;;;;;;;;;4984677;28;20146;-79
2024/01/27 12:09:55;;;;;;;3.83;1.67;;;;;;;;;;4981460;28;20476;-79
2024/01/27 12:12:23;;;;;;;0.43;0.43;;;;;;;;;;4981344;28;20684;-80
2024/01/27 12:14:51;;;;;;;0.20;0.20;;;;;;;;;;4977885;28;20050;-80
2024/01/27 12:17:19;;;;;;;0.88;0.88;;;;;;;;;;4971821;28;20043;-79
2024/01/27 12:19:47;;;;;;;5.20;1.23;;;;;;;;;;4980999;28;20237;-79
2024/01/27 12:22:22;;;;;;;3.85;1.48;;;;;;;;;;4982049;28;20035;-78
2024/01/27 12:24:50;;;;;;;0.95;0.95;;;;;;;;;;4979701;28;20064;-78
2024/01/27 12:27:17;;;;;;;2.10;1.27;;;;;;;;;;4972936;28;20522;-78
2024/01/27 12:29:46;;;;;;;0.30;0.30;;;;;;;;;;4993418;28;20129;-78
2024/01/27 12:32:17;;;;;;;2.08;1.13;;;;;;;;;;4980039;28;20065;-78
2024/01/27 12:34:47;;;;;;;3.22;1.83;;;;;;;;;;4980567;28;20046;-78
2024/01/27 12:37:16;;;;;;;1.13;1.05;;;;;;;;;;4977137;28;20101;-78
2024/01/27 12:39:44;;;;;;;0.20;0.20;;;;;;;;;;4978303;28;20130;-79
2024/01/27 12:42:12;;;;;;;0.45;0.45;;;;;;;;;;4984848;28;20097;-79
2024/01/27 12:44:40;;;;;;;3.50;1.15;;;;;;;;;;4982117;28;20098;-78
2024/01/27 12:47:07;;;;;;;0.60;0.35;;;;;;;;;;4985417;28;20050;-78
2024/01/27 12:49:35;;;;;;;0.32;0.32;;;;;;;;;;4983633;28;20648;-78
2024/01/27 12:52:03;;;;;;;5.80;0.60;;;;;;;;;;4986582;28;20105;-78
2024/01/27 12:54:30;;;;;;;0.38;0.30;;;;;;;;;;4980905;28;20061;-78
2024/01/27 12:56:59;;;;;;;2.75;0.80;;;;;;;;;;4982747;28;20046;-78
2024/01/27 12:59:27;;;;;;;0.13;0.13;;;;;;;;;;4976286;28;20468;-78
2024/01/27 13:01:54;;;;;;;0.47;0.47;;;;;;;;;;4980151;28;20534;-78
2024/01/27 13:04:22;;;;;;;3.50;0.95;;;;;;;;;;4979108;28;20490;-78
2024/01/27 13:06:51;;;;;;;3.08;2.45;;;;;;;;;;4981022;28;20039;-78
2024/01/27 13:09:20;;;;;;;3.70;2.28;;;;;;;;;;4986789;28;20066;-77
2024/01/27 13:11:47;;;;;;;0.63;0.55;;;;;;;;;;4979889;28;20078;-78
2024/01/27 13:14:16;;;;;;;3.65;2.13;;;;;;;;;;4979470;28;20061;-83
2024/01/27 13:16:43;;;;;;;1.45;0.95;;;;;;;;;;4987061;28;20047;-81
2024/01/27 13:19:11;;;;;;;0.10;0.10;;;;;;;;;;4984195;28;20307;-79
2024/01/27 13:21:40;;;;;;;0.85;0.40;;;;;;;;;;4998696;28;20086;-79
2024/01/27 13:24:08;;;;;;;0.98;0.88;;;;;;;;;;4989065;28;20042;-79
2024/01/27 13:26:38;;;;;;;1.90;0.93;;;;;;;;;;4986742;28;20070;-78
2024/01/27 13:29:06;;;;;;;0.90;0.85;;;;;;;;;;4986526;28;20133;-79
2024/01/27 13:31:34;;;;;;;1.13;1.08;;;;;;;;;;4981014;28;20059;-79
2024/01/27 13:34:01;;;;;;;0.38;0.38;;;;;;;;;;5003659;28;20053;-79
2024/01/27 13:36:29;;;;;;;0.68;0.68;;;;;;;;;;4985544;28;20051;-79
2024/01/27 13:38:57;;;;;;;6.03;2.03;;;;;;;;;;4991698;28;20042;-79
2024/01/27 13:41:25;;;;;;;4.07;1.50;;;;;;;;;;4986034;28;20042;-79
2024/01/27 13:43:53;;;;;;;1.00;1.00;;;;;;;;;;4992233;28;20034;-79
2024/01/27 13:46:20;;;;;;;1.60;0.68;;;;;;;;;;4987266;28;20053;-79
2024/01/27 13:48:50;;;;;;;7.82;2.60;;;;;;;;;;4989321;28;20118;-79
2024/01/27 13:51:17;;;;;;;6.30;0.68;;;;;;;;;;4985170;28;20047;-79
2024/01/27 13:53:45;;;;;;;0.20;0.20;;;;;;;;;;4986677;28;20050;-79
2024/01/27 13:56:15;;;;;;;0.10;0.10;;;;;;;;;;4993745;28;20146;-79
2024/01/27 13:58:42;;;;;;;0.10;0.10;;;;;;;;;;4990163;28;20035;-77
2024/01/27 14:01:10;;;;;;;0.25;0.25;;;;;;;;;;4988310;28;20061;-79
2024/01/27 14:03:37;;;;;;;2.95;1.83;;;;;;;;;;4989329;28;20133;-79
2024/01/27 14:06:06;;;;;;;1.02;1.02;;;;;;;;;;4992717;28;20042;-79
2024/01/27 14:08:34;;;;;;;0.90;0.90;;;;;;;;;;4987499;28;20528;-77
2024/01/27 14:11:01;;;;;;;0.10;0.10;;;;;;;;;;4991500;28;20074;-79
2024/01/27 14:13:28;;;;;;;1.35;0.55;;;;;;;;;;4990541;28;20054;-78
2024/01/27 14:15:56;;;;;;;10.02;3.10;;;;;;;;;;4976824;28;20055;-77
2024/01/27 14:18:23;;;;;;;1.23;1.10;;;;;;;;;;4973439;28;20485;-77
2024/01/27 14:20:51;;;;;;;0.30;0.30;;;;;;;;;;4977845;28;20046;-80
2024/01/27 14:23:18;;;;;;;1.02;1.02;;;;;;;;;;4987131;28;20082;-80
2024/01/27 14:25:46;;;;;;;0.25;0.25;;;;;;;;;;4988104;28;20129;-78
2024/01/27 14:28:14;;;;;;;0.10;0.10;;;;;;;;;;4982847;28;20046;-79
2024/01/27 14:30:43;;;;;;;26.05;2.67;;;;;;;;;;4988030;28;20042;-79
2024/01/27 14:33:11;;;;;;;1.67;0.55;;;;;;;;;;4988475;28;20054;-79
2024/01/27 14:35:40;;;;;;;0.10;0.10;;;;;;;;;;4995698;28;20110;-79
2024/01/27 14:38:11;;;;;;;0.10;0.10;;;;;;;;;;5005540;28;20046;-79
2024/01/27 14:40:38;;;;;;;0.20;0.20;;;;;;;;;;4987311;28;20051;-78
2024/01/27 14:43:11;;;;;;;0.17;0.17;;;;;;;;;;4983774;28;20054;-77
2024/01/27 14:45:38;;;;;;;0.32;0.32;;;;;;;;;;4979847;28;20632;-78
2024/01/27 14:48:06;;;;;;;0.75;0.75;;;;;;;;;;4978569;28;20054;-78
2024/01/27 14:50:34;;;;;;;1.15;0.68;;;;;;;;;;4977933;28;20070;-80
2024/01/27 14:53:02;;;;;;;0.15;0.15;;;;;;;;;;4977959;28;20062;-79